Time;durP1;ratioP1;P1;durP2;ratioP2;P2;SDS_P1;SDS_P2;PMS_P1;PMS_P2;Temp;Humidity;BMP_temperature;BMP_pressure;BME280_temperature;BME280_humidity;BME280_pressure;Samples;Min_cycle;Max_cycle;Signal;HPM_P1;HPM_P2
2022/06/05 00:01:56;;;;;;;;;;;;;;;21.12;nan;99212.50;5015689;28;19983;-87
2022/06/05 00:04:37;;;;;;;;;;;;;;;21.08;nan;99208.50;4987554;28;20481;-88
2022/06/05 00:07:15;;;;;;;;;;;;;;;21.04;nan;99220.56;5002767;28;19988;-86
2022/06/05 00:09:46;;;;;;;;;;;;;;;20.99;nan;99223.75;5003926;28;19980;-88
2022/06/05 00:12:13;;;;;;;;;;;;;;;20.90;nan;99236.31;5010225;28;19972;-88
2022/06/05 00:14:39;;;;;;;;;;;;;;;20.85;nan;99248.50;5001074;28;19983;-87
2022/06/05 00:17:16;;;;;;;;;;;;;;;20.76;nan;99245.84;5003755;28;19988;-87
2022/06/05 00:19:44;;;;;;;;;;;;;;;20.70;nan;99248.38;4988293;28;19975;-87
2022/06/05 00:22:09;;;;;;;;;;;;;;;20.64;nan;99251.75;5002430;28;20556;-88
2022/06/05 00:24:34;;;;;;;;;;;;;;;20.60;nan;99250.41;5004951;28;20470;-87
2022/06/05 00:27:11;;;;;;;;;;;;;;;20.57;nan;99262.25;5008512;28;20030;-87
2022/06/05 00:29:41;;;;;;;;;;;;;;;20.55;nan;99264.28;4980229;28;20018;-87
2022/06/05 00:32:09;;;;;;;;;;;;;;;20.52;nan;99253.88;4661111;28;10001411;-87
2022/06/05 00:34:35;;;;;;;;;;;;;;;20.50;nan;99256.75;5004850;28;20058;-87
2022/06/05 00:37:19;;;;;;;;;;;;;;;20.46;nan;99250.06;4999938;28;20070;-88
2022/06/05 00:40:18;;;;;;;;;;;;;;;20.40;nan;99237.41;4987768;28;19985;-87
2022/06/05 00:42:45;;;;;;;;;;;;;;;20.35;nan;99247.75;5012133;28;20480;-87
2022/06/05 00:45:11;;;;;;;;;;;;;;;20.33;nan;99257.75;5005274;28;20022;-88
2022/06/05 00:47:38;;;;;;;;;;;;;;;20.34;nan;99257.59;4996205;28;20039;-87
2022/06/05 00:50:11;;;;;;;;;;;;;;;20.32;nan;99258.78;5005158;28;20580;-85
2022/06/05 00:52:38;;;;;;;;;;;;;;;20.30;nan;99234.09;4982585;28;20003;-87
2022/06/05 00:55:04;;;;;;;;;;;;;;;20.27;nan;99227.25;4982998;28;20083;-86
2022/06/05 00:57:32;;;;;;;;;;;;;;;20.26;nan;99217.59;4984805;28;20043;-87
2022/06/05 00:59:58;;;;;;;;;;;;;;;20.29;nan;99224.44;5004583;28;19972;-88
2022/06/05 01:02:23;;;;;;;;;;;;;;;20.30;nan;99212.75;4983191;28;19973;-86
2022/06/05 01:04:49;;;;;;;;;;;;;;;20.30;nan;99188.75;5009874;28;20305;-86
2022/06/05 01:07:16;;;;;;;;;;;;;;;20.31;nan;99166.44;4983055;28;20690;-86
2022/06/05 01:09:42;;;;;;;;;;;;;;;20.30;nan;99148.75;4997012;28;20554;-87
2022/06/05 01:12:18;;;;;;;;;;;;;;;20.30;nan;99133.56;4980366;28;20015;-88
2022/06/05 01:14:43;;;;;;;;;;;;;;;20.30;nan;99117.56;5005997;28;20434;-88
2022/06/05 01:17:21;;;;;;;;;;;;;;;20.33;nan;99127.06;5000716;28;19982;-87
2022/06/05 01:20:05;;;;;;;;;;;;;;;20.32;nan;99130.75;5000557;28;20437;-86
2022/06/05 01:22:31;;;;;;;;;;;;;;;20.30;nan;99125.56;5003254;28;20066;-87
2022/06/05 01:25:14;;;;;;;;;;;;;;;20.35;nan;99119.72;5006393;28;20091;-87
2022/06/05 01:27:41;;;;;;;;;;;;;;;20.39;nan;99101.53;5002600;28;20000;-87
2022/06/05 01:30:17;;;;;;;;;;;;;;;20.37;nan;99091.03;4993945;28;20052;-86
2022/06/05 01:32:43;;;;;;;;;;;;;;;20.38;nan;99087.38;5001589;28;19972;-86
2022/06/05 01:35:34;;;;;;;;;;;;;;;20.43;nan;99093.00;5005100;28;19980;-87
2022/06/05 01:38:03;;;;;;;;;;;;;;;20.48;nan;99120.00;4964929;28;20006;-86
2022/06/05 01:40:30;;;;;;;;;;;;;;;20.49;nan;99137.66;5001270;28;19991;-86
2022/06/05 01:43:07;;;;;;;;;;;;;;;20.50;nan;99111.84;4992521;28;19972;-86
2022/06/05 01:45:38;;;;;;;;;;;;;;;20.51;nan;99065.47;5006542;28;20011;-86
2022/06/05 01:48:04;;;;;;;;;;;;;;;20.53;nan;99101.69;5001398;28;19984;-85
2022/06/05 01:50:38;;;;;;;;;;;;;;;20.53;nan;99109.69;5003177;28;19986;-85
2022/06/05 01:53:09;;;;;;;;;;;;;;;20.52;nan;99112.47;5009006;28;20043;-86
2022/06/05 01:55:42;;;;;;;;;;;;;;;20.52;nan;99149.81;4964758;28;20011;-86
2022/06/05 01:58:09;;;;;;;;;;;;;;;20.48;nan;99162.69;4987116;28;19972;-86
2022/06/05 02:00:35;;;;;;;;;;;;;;;20.44;nan;99118.69;4986407;28;20540;-87
2022/06/05 02:03:17;;;;;;;;;;;;;;;20.41;nan;99071.00;5013390;28;19983;-86
2022/06/05 02:05:53;;;;;;;;;;;;;;;20.40;nan;99071.19;5012220;28;19964;-87
2022/06/05 02:08:42;;;;;;;;;;;;;;;20.35;nan;99114.38;5013463;28;19996;-87
2022/06/05 02:11:19;;;;;;;;;;;;;;;20.31;nan;99113.09;4972113;28;19980;-88
2022/06/05 02:13:45;;;;;;;;;;;;;;;20.30;nan;99060.72;5012810;28;19976;-87
2022/06/05 02:16:12;;;;;;;;;;;;;;;20.28;nan;99063.59;5004841;28;19983;-86
2022/06/05 02:18:38;;;;;;;;;;;;;;;20.26;nan;99102.91;4989381;28;20215;-87
2022/06/05 02:21:04;;;;;;;;;;;;;;;20.24;nan;99106.75;5006897;28;19983;-88
2022/06/05 02:23:32;;;;;;;;;;;;;;;20.21;nan;99110.59;4932878;28;1766504;-88
2022/06/05 02:25:59;;;;;;;;;;;;;;;20.19;nan;99128.59;5011573;28;19972;-87
2022/06/05 02:28:25;;;;;;;;;;;;;;;20.13;nan;99131.97;4995535;28;20063;-87
2022/06/05 02:30:53;;;;;;;;;;;;;;;20.06;nan;99142.50;5013681;28;20003;-87
2022/06/05 02:33:25;;;;;;;;;;;;;;;20.01;nan;99178.63;5006955;28;20046;-87
2022/06/05 02:36:00;;;;;;;;;;;;;;;19.98;nan;99193.16;4991638;28;19972;-88
2022/06/05 02:38:38;;;;;;;;;;;;;;;19.96;nan;99202.31;4955111;28;19992;-87
2022/06/05 02:41:26;;;;;;;;;;;;;;;19.93;nan;99208.81;4981343;28;19976;-86
2022/06/05 02:44:29;;;;;;;;;;;;;;;19.91;nan;99213.47;4965118;28;19981;-86
2022/06/05 02:46:58;;;;;;;;;;;;;;;19.89;nan;99210.13;4975311;28;21210;-86
2022/06/05 02:49:30;;;;;;;;;;;;;;;19.88;nan;99229.81;4977719;28;19973;-87
2022/06/05 02:51:58;;;;;;;;;;;;;;;19.89;nan;99236.78;4980790;28;20069;-87
2022/06/05 02:54:25;;;;;;;;;;;;;;;19.90;nan;99249.09;4970015;28;20069;-86
2022/06/05 02:56:50;;;;;;;;;;;;;;;19.87;nan;99262.78;4983677;28;19981;-86
2022/06/05 02:59:16;;;;;;;;;;;;;;;19.87;nan;99268.09;4982403;28;20040;-86
2022/06/05 03:04:26;;;;;;;;;;;;;;;19.96;nan;99288.44;4990111;28;20454;-86
2022/06/05 03:06:51;;;;;;;;;;;;;;;20.00;nan;99287.09;4962004;28;20001;-86
2022/06/05 03:09:18;;;;;;;;;;;;;;;20.02;nan;99287.78;4962422;28;19973;-87
2022/06/05 03:11:43;;;;;;;;;;;;;;;20.05;nan;99310.63;4981766;28;19972;-86
2022/06/05 03:14:09;;;;;;;;;;;;;;;20.04;nan;99320.44;4967645;28;19981;-87
2022/06/05 03:16:34;;;;;;;;;;;;;;;20.02;nan;99333.09;4964595;28;19965;-87
2022/06/05 03:19:00;;;;;;;;;;;;;;;20.00;nan;99320.94;4982998;28;20657;-86
2022/06/05 03:21:25;;;;;;;;;;;;;;;20.00;nan;99311.09;4973902;28;19973;-86
2022/06/05 03:23:50;;;;;;;;;;;;;;;19.99;nan;99322.78;4973412;28;20000;-87
2022/06/05 03:26:18;;;;;;;;;;;;;;;20.01;nan;99334.13;4969151;28;20343;-86
2022/06/05 03:28:44;;;;;;;;;;;;;;;20.03;nan;99332.09;4968016;28;20044;-86
2022/06/05 03:31:09;;;;;;;;;;;;;;;20.06;nan;99313.13;4953314;28;20469;-85
2022/06/05 03:33:37;;;;;;;;;;;;;;;20.07;nan;99276.63;4972106;28;19973;-85
2022/06/05 03:36:07;;;;;;;;;;;;;;;20.02;nan;99295.78;4951891;28;20016;-85
2022/06/05 03:38:32;;;;;;;;;;;;;;;20.02;nan;99309.09;4963681;28;20064;-85
2022/06/05 03:40:57;;;;;;;;;;;;;;;19.98;nan;99294.47;4999394;28;20007;-85
2022/06/05 03:43:23;;;;;;;;;;;;;;;19.85;nan;99286.13;4999778;28;20006;-86
2022/06/05 03:45:48;;;;;;;;;;;;;;;19.77;nan;99297.59;5005432;28;19972;-85
2022/06/05 03:48:13;;;;;;;;;;;;;;;19.72;nan;99307.91;5005096;28;19988;-85
2022/06/05 03:50:39;;;;;;;;;;;;;;;19.66;nan;99285.41;4980048;28;19975;-85
2022/06/05 03:53:05;;;;;;;;;;;;;;;19.58;nan;99242.75;5004494;28;20181;-85
2022/06/05 03:55:31;;;;;;;;;;;;;;;19.50;nan;99239.25;4987254;28;20445;-85
2022/06/05 03:57:57;;;;;;;;;;;;;;;19.43;nan;99241.72;5005990;28;20547;-85
2022/06/05 04:00:22;;;;;;;;;;;;;;;19.40;nan;99258.03;4988758;28;20679;-86
2022/06/05 04:02:49;;;;;;;;;;;;;;;19.37;nan;99274.31;5001801;28;19985;-86
2022/06/05 04:05:15;;;;;;;;;;;;;;;19.33;nan;99257.00;4999734;28;19983;-85
2022/06/05 04:07:40;;;;;;;;;;;;;;;19.31;nan;99269.63;4990966;28;20003;-85
2022/06/05 04:10:06;;;;;;;;;;;;;;;19.29;nan;99282.28;5014437;28;19976;-86
2022/06/05 04:12:32;;;;;;;;;;;;;;;19.29;nan;99301.75;5000404;28;19975;-86
2022/06/05 04:14:59;;;;;;;;;;;;;;;19.28;nan;99292.13;5003853;28;19976;-85
2022/06/05 04:17:24;;;;;;;;;;;;;;;19.31;nan;99282.94;5007444;28;20260;-87
2022/06/05 04:19:51;;;;;;;;;;;;;;;19.34;nan;99274.66;4998244;28;20066;-85
2022/06/05 04:22:16;;;;;;;;;;;;;;;19.35;nan;99255.00;4996260;28;20014;-86
2022/06/05 04:24:42;;;;;;;;;;;;;;;19.33;nan;99252.50;5007324;28;19996;-86
2022/06/05 04:27:07;;;;;;;;;;;;;;;19.31;nan;99257.16;5001686;28;19988;-86
2022/06/05 04:29:33;;;;;;;;;;;;;;;19.29;nan;99284.97;5004114;28;19975;-86
2022/06/05 04:31:58;;;;;;;;;;;;;;;19.27;nan;99293.09;4981788;28;20027;-86
2022/06/05 04:34:24;;;;;;;;;;;;;;;19.28;nan;99288.59;4986532;28;20054;-86
2022/06/05 04:36:49;;;;;;;;;;;;;;;19.25;nan;99305.72;5007876;28;20357;-86
2022/06/05 04:39:15;;;;;;;;;;;;;;;19.15;nan;99313.88;5009781;28;19972;-86
2022/06/05 04:41:43;;;;;;;;;;;;;;;19.06;nan;99316.63;5000121;28;20019;-85
2022/06/05 04:44:11;;;;;;;;;;;;;;;19.01;nan;99317.97;5007238;28;19980;-87
2022/06/05 04:46:37;;;;;;;;;;;;;;;19.00;nan;99318.94;5006280;28;19994;-86
2022/06/05 04:49:03;;;;;;;;;;;;;;;19.02;nan;99330.25;5009735;28;19972;-86
2022/06/05 04:51:28;;;;;;;;;;;;;;;19.05;nan;99326.44;5004495;28;20429;-86
2022/06/05 04:53:54;;;;;;;;;;;;;;;19.08;nan;99315.47;4981990;28;19968;-86
2022/06/05 04:56:21;;;;;;;;;;;;;;;19.07;nan;99305.84;5009143;28;20354;-86
2022/06/05 04:58:47;;;;;;;;;;;;;;;19.06;nan;99306.81;5003191;28;19964;-86
2022/06/05 05:01:18;;;;;;;;;;;;;;;19.06;nan;99314.81;5002136;28;19975;-86
2022/06/05 05:03:44;;;;;;;;;;;;;;;18.98;nan;99339.56;4982667;28;19973;-87
2022/06/05 05:06:10;;;;;;;;;;;;;;;18.97;nan;99343.22;5007163;28;19984;-86
2022/06/05 05:08:35;;;;;;;;;;;;;;;18.97;nan;99351.19;4985304;28;20497;-86
2022/06/05 05:11:01;;;;;;;;;;;;;;;19.00;nan;99352.72;5004039;28;20490;-85
2022/06/05 05:13:26;;;;;;;;;;;;;;;19.00;nan;99356.19;5001722;28;20138;-86
2022/06/05 05:15:52;;;;;;;;;;;;;;;18.98;nan;99373.31;5003917;28;19972;-86
2022/06/05 05:18:18;;;;;;;;;;;;;;;18.95;nan;99377.13;4985989;28;20196;-86
2022/06/05 05:20:43;;;;;;;;;;;;;;;18.92;nan;99371.28;5002888;28;20022;-86
2022/06/05 05:23:09;;;;;;;;;;;;;;;18.86;nan;99361.28;5002638;28;19979;-86
2022/06/05 05:25:34;;;;;;;;;;;;;;;18.80;nan;99346.78;5001800;28;19996;-85
2022/06/05 05:28:00;;;;;;;;;;;;;;;18.76;nan;99356.88;5000544;28;20057;-85
2022/06/05 05:30:25;;;;;;;;;;;;;;;18.79;nan;99367.25;5008133;28;20426;-86
2022/06/05 05:32:51;;;;;;;;;;;;;;;18.84;nan;99358.75;5007730;28;20329;-86
2022/06/05 05:35:16;;;;;;;;;;;;;;;18.87;nan;99339.81;5004812;28;19998;-86
2022/06/05 05:37:41;;;;;;;;;;;;;;;18.86;nan;99324.03;5008198;28;20135;-85
2022/06/05 05:42:51;;;;;;;;;;;;;;;18.81;nan;99308.53;5010392;28;19973;-86
2022/06/05 05:45:16;;;;;;;;;;;;;;;18.81;nan;99310.34;4999668;28;19979;-85
2022/06/05 05:47:42;;;;;;;;;;;;;;;18.83;nan;99311.88;5007689;28;20095;-85
2022/06/05 05:50:11;;;;;;;;;;;;;;;18.87;nan;99328.34;5014151;28;20019;-85
2022/06/05 05:52:36;;;;;;;;;;;;;;;18.94;nan;99337.38;5004400;28;19974;-85
2022/06/05 05:55:02;;;;;;;;;;;;;;;18.99;nan;99329.75;4999212;28;19964;-84
2022/06/05 05:57:27;;;;;;;;;;;;;;;19.05;nan;99322.97;5004414;28;19990;-86
2022/06/05 05:59:59;;;;;;;;;;;;;;;19.08;nan;99312.81;5007921;28;20074;-86
2022/06/05 06:02:25;;;;;;;;;;;;;;;19.10;nan;99291.38;4995517;28;20504;-86
2022/06/05 06:04:52;;;;;;;;;;;;;;;19.09;nan;99263.94;5010766;28;20015;-86
2022/06/05 06:07:20;;;;;;;;;;;;;;;19.08;nan;99270.22;4996717;28;20035;-85
2022/06/05 06:09:45;;;;;;;;;;;;;;;19.09;nan;99271.91;4996409;28;20484;-87
2022/06/05 06:12:11;;;;;;;;;;;;;;;19.12;nan;99265.41;4998152;28;20026;-86
2022/06/05 06:14:37;;;;;;;;;;;;;;;19.16;nan;99282.75;5007671;28;19976;-85
2022/06/05 06:17:02;;;;;;;;;;;;;;;19.20;nan;99290.25;5003963;28;20279;-86
2022/06/05 06:19:28;;;;;;;;;;;;;;;19.21;nan;99275.09;4998358;28;20654;-86
2022/06/05 06:21:53;;;;;;;;;;;;;;;19.23;nan;99273.94;4996865;28;20869;-85
2022/06/05 06:24:18;;;;;;;;;;;;;;;19.29;nan;99280.47;5001000;28;20067;-86
2022/06/05 06:26:44;;;;;;;;;;;;;;;19.36;nan;99285.97;4998949;28;20409;-85
2022/06/05 06:29:09;;;;;;;;;;;;;;;19.42;nan;99283.50;4994815;28;20236;-85
2022/06/05 06:31:35;;;;;;;;;;;;;;;19.51;nan;99292.34;4999636;28;20030;-85
2022/06/05 06:34:01;;;;;;;;;;;;;;;19.57;nan;99294.34;5006822;28;19968;-86
2022/06/05 06:36:27;;;;;;;;;;;;;;;19.62;nan;99283.19;5012034;28;20032;-85
2022/06/05 06:38:52;;;;;;;;;;;;;;;19.69;nan;99278.94;5010760;28;20058;-86
2022/06/05 06:41:18;;;;;;;;;;;;;;;19.71;nan;99255.59;5010965;28;20003;-85
2022/06/05 06:43:44;;;;;;;;;;;;;;;19.74;nan;99249.09;5005803;28;20516;-86
2022/06/05 06:46:10;;;;;;;;;;;;;;;19.83;nan;99256.13;5001368;28;19979;-86
2022/06/05 06:48:36;;;;;;;;;;;;;;;19.93;nan;99254.13;5008099;28;19976;-86
2022/06/05 06:51:01;;;;;;;;;;;;;;;20.05;nan;99239.44;5010728;28;20691;-86
2022/06/05 06:53:28;;;;;;;;;;;;;;;20.23;nan;99238.47;4997992;28;19991;-86
2022/06/05 06:55:53;;;;;;;;;;;;;;;20.39;nan;99232.22;5005141;28;20072;-86
2022/06/05 06:58:18;;;;;;;;;;;;;;;20.54;nan;99226.06;5008476;28;20364;-86
2022/06/05 07:00:44;;;;;;;;;;;;;;;20.96;nan;99232.94;4995107;28;20007;-85
2022/06/05 07:03:09;;;;;;;;;;;;;;;21.59;nan;99238.28;4998131;28;20018;-85
2022/06/05 07:05:35;;;;;;;;;;;;;;;22.04;nan;99221.41;5000833;28;20007;-85
2022/06/05 07:08:00;;;;;;;;;;;;;;;22.29;nan;99222.00;5001363;28;20031;-85
2022/06/05 07:10:26;;;;;;;;;;;;;;;22.87;nan;99208.84;5014445;28;19976;-84
2022/06/05 07:12:51;;;;;;;;;;;;;;;23.59;nan;99199.13;4998518;28;20073;-84
2022/06/05 07:15:17;;;;;;;;;;;;;;;24.28;nan;99182.41;5008905;28;20399;-84
2022/06/05 07:17:42;;;;;;;;;;;;;;;24.79;nan;99174.03;5003203;28;19997;-84
2022/06/05 07:20:07;;;;;;;;;;;;;;;25.14;nan;99153.28;4995975;28;19959;-84
2022/06/05 07:22:36;;;;;;;;;;;;;;;25.43;nan;99150.44;5014794;28;20030;-85
2022/06/05 07:25:02;;;;;;;;;;;;;;;25.56;nan;99150.47;5002038;28;19996;-86
2022/06/05 07:27:27;;;;;;;;;;;;;;;25.82;nan;99157.72;5007915;28;20202;-86
2022/06/05 07:29:53;;;;;;;;;;;;;;;26.08;nan;99175.72;5006661;28;20051;-84
2022/06/05 07:32:19;;;;;;;;;;;;;;;26.25;nan;99195.00;5007019;28;20472;-85
2022/06/05 07:34:44;;;;;;;;;;;;;;;26.17;nan;99196.03;4999828;28;20444;-85
2022/06/05 07:37:10;;;;;;;;;;;;;;;26.08;nan;99193.75;4990151;28;19968;-85
2022/06/05 07:39:35;;;;;;;;;;;;;;;25.80;nan;99189.38;4982575;28;19972;-85
2022/06/05 07:42:00;;;;;;;;;;;;;;;25.53;nan;99192.03;5006088;28;19986;-85
2022/06/05 07:44:26;;;;;;;;;;;;;;;25.25;nan;99197.59;4995801;28;20074;-85
2022/06/05 07:46:52;;;;;;;;;;;;;;;24.90;nan;99203.00;5005494;28;20082;-85
2022/06/05 07:49:17;;;;;;;;;;;;;;;24.64;nan;99211.75;5008228;28;20090;-84
2022/06/05 07:54:27;;;;;;;;;;;;;;;23.88;nan;99238.44;5000865;28;19972;-84
2022/06/05 07:57:07;;;;;;;;;;;;;;;23.53;nan;99249.00;5000860;28;19972;-84
2022/06/05 07:59:34;;;;;;;;;;;;;;;23.29;nan;99252.84;5003615;28;19972;-84
2022/06/05 08:02:03;;;;;;;;;;;;;;;23.18;nan;99235.41;5005520;28;20393;-85
2022/06/05 08:04:29;;;;;;;;;;;;;;;23.34;nan;99226.31;5001975;28;20099;-84
2022/06/05 08:06:55;;;;;;;;;;;;;;;23.92;nan;99238.88;5005844;28;20087;-84
2022/06/05 08:09:20;;;;;;;;;;;;;;;24.66;nan;99236.56;5001854;28;20610;-85
2022/06/05 08:11:46;;;;;;;;;;;;;;;25.43;nan;99249.94;4981605;28;19976;-84
2022/06/05 08:14:12;;;;;;;;;;;;;;;25.76;nan;99269.69;5002663;28;19972;-85
2022/06/05 08:16:43;;;;;;;;;;;;;;;25.83;nan;99265.16;5005277;28;19976;-84
2022/06/05 08:19:09;;;;;;;;;;;;;;;25.91;nan;99280.28;5000745;28;19968;-84
2022/06/05 08:21:34;;;;;;;;;;;;;;;25.97;nan;99270.56;4992193;28;20098;-84
2022/06/05 08:24:00;;;;;;;;;;;;;;;25.92;nan;99294.56;4995010;28;19996;-83
2022/06/05 08:26:25;;;;;;;;;;;;;;;25.83;nan;99291.22;5011846;28;20379;-84
2022/06/05 08:28:50;;;;;;;;;;;;;;;26.00;nan;99295.19;5002746;28;20369;-85
2022/06/05 08:31:15;;;;;;;;;;;;;;;26.16;nan;99288.56;5022328;28;20255;-84
2022/06/05 08:33:42;;;;;;;;;;;;;;;26.40;nan;99289.00;5012208;28;20442;-85
2022/06/05 08:36:07;;;;;;;;;;;;;;;26.44;nan;99291.06;5002892;28;20252;-85
2022/06/05 08:41:28;;;;;;;;;;;;;;;26.56;nan;99274.31;5006727;28;19972;-85
2022/06/05 08:44:03;;;;;;;;;;;;;;;26.77;nan;99265.16;5004010;28;19972;-85
2022/06/05 08:46:34;;;;;;;;;;;;;;;27.10;nan;99265.84;5002371;28;20030;-84
2022/06/05 08:49:16;;;;;;;;;;;;;;;27.21;nan;99277.06;5003413;28;20063;-85
2022/06/05 08:51:55;;;;;;;;;;;;;;;26.92;nan;99274.66;5010464;28;20033;-85
2022/06/05 08:54:20;;;;;;;;;;;;;;;26.65;nan;99267.66;5014693;28;19971;-85
2022/06/05 08:56:59;;;;;;;;;;;;;;;26.47;nan;99261.03;5008591;28;19972;-84
2022/06/05 08:59:43;;;;;;;;;;;;;;;26.37;nan;99254.41;4998450;28;19972;-85
2022/06/05 09:02:22;;;;;;;;;;;;;;;26.15;nan;99246.53;5008865;28;20051;-85
2022/06/05 09:04:50;;;;;;;;;;;;;;;25.91;nan;99217.56;5019324;28;19976;-85
2022/06/05 09:07:25;;;;;;;;;;;;;;;25.66;nan;99191.25;5007616;28;20409;-85
2022/06/05 09:09:53;;;;;;;;;;;;;;;25.35;nan;99173.78;5007320;28;20503;-86
2022/06/05 09:12:29;;;;;;;;;;;;;;;25.19;nan;99173.34;5010325;28;20442;-85
2022/06/05 09:14:58;;;;;;;;;;;;;;;24.97;nan;99170.78;5017936;28;19976;-84
2022/06/05 09:17:24;;;;;;;;;;;;;;;24.71;nan;99190.31;5022009;28;19968;-85
2022/06/05 09:19:51;;;;;;;;;;;;;;;24.62;nan;99213.81;5005547;28;19968;-84
2022/06/05 09:22:18;;;;;;;;;;;;;;;24.58;nan;99207.19;5003235;28;19972;-85
2022/06/05 09:25:05;;;;;;;;;;;;;;;24.77;nan;99216.38;4995478;28;20043;-85
2022/06/05 09:27:33;;;;;;;;;;;;;;;25.14;nan;99227.66;4993728;28;19992;-85
2022/06/05 09:30:04;;;;;;;;;;;;;;;25.61;nan;99224.13;4999500;28;19979;-84
2022/06/05 09:32:39;;;;;;;;;;;;;;;26.16;nan;99215.88;4981776;28;20051;-84
2022/06/05 09:35:23;;;;;;;;;;;;;;;26.77;nan;99213.97;4996253;28;19971;-85
2022/06/05 09:37:58;;;;;;;;;;;;;;;27.17;nan;99198.47;4983446;28;19983;-85
2022/06/05 09:40:30;;;;;;;;;;;;;;;27.21;nan;99198.88;4986699;28;20073;-85
2022/06/05 09:43:15;;;;;;;;;;;;;;;27.07;nan;99208.84;4979460;28;19980;-86
2022/06/05 09:46:08;;;;;;;;;;;;;;;27.10;nan;99208.41;4984622;28;20423;-86
2022/06/05 09:48:46;;;;;;;;;;;;;;;27.44;nan;99198.31;4989700;28;19992;-85
2022/06/05 09:51:14;;;;;;;;;;;;;;;27.49;nan;99198.47;5003657;28;19987;-85
2022/06/05 09:53:42;;;;;;;;;;;;;;;27.56;nan;99202.78;5001555;28;20312;-85
2022/06/05 09:56:31;;;;;;;;;;;;;;;27.76;nan;99199.13;5002322;28;20456;-85
2022/06/05 09:59:00;;;;;;;;;;;;;;;27.95;nan;99186.53;5014505;28;20022;-87
2022/06/05 10:01:35;;;;;;;;;;;;;;;28.18;nan;99192.16;4980005;28;19995;-85
2022/06/05 10:04:04;;;;;;;;;;;;;;;28.10;nan;99215.91;5007021;28;19995;-85
2022/06/05 10:06:29;;;;;;;;;;;;;;;28.01;nan;99216.19;5007657;28;19979;-86
2022/06/05 10:09:07;;;;;;;;;;;;;;;27.77;nan;99222.38;5018631;28;19972;-86
2022/06/05 10:11:50;;;;;;;;;;;;;;;27.56;nan;99221.66;5007636;28;19979;-86
2022/06/05 10:14:35;;;;;;;;;;;;;;;27.43;nan;99224.44;5006896;28;20062;-86
2022/06/05 10:17:07;;;;;;;;;;;;;;;27.37;nan;99225.31;5011783;28;19976;-85
2022/06/05 10:19:52;;;;;;;;;;;;;;;27.61;nan;99214.81;4988883;28;20532;-86
2022/06/05 10:22:27;;;;;;;;;;;;;;;28.00;nan;99206.44;5009667;28;20731;-86
2022/06/05 10:25:02;;;;;;;;;;;;;;;28.27;nan;99217.00;5001266;28;19976;-85
2022/06/05 10:27:28;;;;;;;;;;;;;;;28.45;nan;99213.53;4998925;28;19987;-87
2022/06/05 10:29:55;;;;;;;;;;;;;;;28.33;nan;99221.53;4984883;28;19980;-85
2022/06/05 10:32:40;;;;;;;;;;;;;;;28.27;nan;99211.59;5006551;28;19968;-88
2022/06/05 10:35:09;;;;;;;;;;;;;;;28.26;nan;99225.34;5015504;28;19976;-86
2022/06/05 10:37:35;;;;;;;;;;;;;;;28.20;nan;99221.66;5005268;28;19972;-85
2022/06/05 10:40:05;;;;;;;;;;;;;;;28.19;nan;99222.66;5012269;28;19979;-86
2022/06/05 10:42:31;;;;;;;;;;;;;;;28.13;nan;99221.69;4992355;28;19972;-86
2022/06/05 10:45:19;;;;;;;;;;;;;;;28.27;nan;99218.88;5001241;28;19979;-86
2022/06/05 10:48:01;;;;;;;;;;;;;;;28.34;nan;99225.03;4994856;28;19992;-86
2022/06/05 10:50:27;;;;;;;;;;;;;;;28.39;nan;99214.41;5007568;28;19977;-86
2022/06/05 10:52:52;;;;;;;;;;;;;;;28.36;nan;99221.06;5015500;28;20011;-86
2022/06/05 10:55:17;;;;;;;;;;;;;;;28.24;nan;99225.53;5010786;28;20055;-86
2022/06/05 10:57:48;;;;;;;;;;;;;;;28.18;nan;99226.44;5007786;28;19976;-86
2022/06/05 11:00:17;;;;;;;;;;;;;;;28.27;nan;99233.19;5007566;28;19976;-86
2022/06/05 11:03:08;;;;;;;;;;;;;;;28.49;nan;99244.47;5011009;28;19976;-86
2022/06/05 11:05:46;;;;;;;;;;;;;;;28.61;nan;99236.44;4986523;28;20474;-87
2022/06/05 11:08:21;;;;;;;;;;;;;;;28.56;nan;99237.09;4989109;28;20038;-87
2022/06/05 11:13:49;;;;;;;;;;;;;;;28.75;nan;99235.22;5004109;28;19964;-86
2022/06/05 11:16:24;;;;;;;;;;;;;;;28.81;nan;99225.41;5010639;28;20710;-86
2022/06/05 11:18:57;;;;;;;;;;;;;;;28.79;nan;99230.22;5008723;28;20137;-86
2022/06/05 11:21:23;;;;;;;;;;;;;;;28.68;nan;99229.09;5006514;28;20456;-85
2022/06/05 11:23:50;;;;;;;;;;;;;;;28.54;nan;99227.56;5005630;28;20102;-86
2022/06/05 11:26:35;;;;;;;;;;;;;;;28.30;nan;99235.47;5009316;28;20090;-85
2022/06/05 11:29:19;;;;;;;;;;;;;;;28.02;nan;99230.50;5005016;28;19980;-87
2022/06/05 11:31:47;;;;;;;;;;;;;;;27.68;nan;99238.00;4987246;28;19972;-86
2022/06/05 11:34:19;;;;;;;;;;;;;;;27.48;nan;99232.72;5011810;28;20442;-86
2022/06/05 11:36:56;;;;;;;;;;;;;;;27.41;nan;99228.41;5003856;28;20400;-89
2022/06/05 11:39:27;;;;;;;;;;;;;;;27.40;nan;99242.94;4998788;28;20027;-86
2022/06/05 11:42:07;;;;;;;;;;;;;;;27.37;nan;99241.50;5004305;28;19975;-86
2022/06/05 11:44:37;;;;;;;;;;;;;;;27.30;nan;99254.19;5005362;28;19968;-86
2022/06/05 11:47:03;;;;;;;;;;;;;;;27.30;nan;99249.66;5005896;28;20000;-86
2022/06/05 11:49:40;;;;;;;;;;;;;;;27.25;nan;99264.81;5006134;28;19975;-86
2022/06/05 11:52:20;;;;;;;;;;;;;;;27.25;nan;99264.81;5008440;28;19971;-86
2022/06/05 11:54:58;;;;;;;;;;;;;;;27.30;nan;99259.56;4990085;28;20441;-86
2022/06/05 11:57:42;;;;;;;;;;;;;;;27.18;nan;99272.09;5015819;28;19974;-89
2022/06/05 12:00:27;;;;;;;;;;;;;;;27.15;nan;99276.00;5002326;28;20423;-87
2022/06/05 12:03:10;;;;;;;;;;;;;;;27.15;nan;99251.75;4986372;28;20070;-86
2022/06/05 12:05:41;;;;;;;;;;;;;;;27.25;nan;99252.16;4984472;28;20497;-87
2022/06/05 12:08:09;;;;;;;;;;;;;;;27.40;nan;99248.34;5008791;28;20049;-87
2022/06/05 12:10:37;;;;;;;;;;;;;;;27.44;nan;99263.88;4999055;28;19968;-87
2022/06/05 12:13:13;;;;;;;;;;;;;;;27.40;nan;99253.72;5004737;28;19972;-86
2022/06/05 12:15:51;;;;;;;;;;;;;;;27.29;nan;99263.34;5006620;28;19976;-87
2022/06/05 12:18:49;;;;;;;;;;;;;;;27.11;nan;99262.13;5007141;28;20090;-86
2022/06/05 12:21:18;;;;;;;;;;;;;;;26.95;nan;99259.91;4972239;28;20058;-86
2022/06/05 12:23:50;;;;;;;;;;;;;;;26.88;nan;99256.41;5012854;28;20461;-86
2022/06/05 12:26:21;;;;;;;;;;;;;;;26.90;nan;99248.94;5001144;28;19995;-86
2022/06/05 12:28:52;;;;;;;;;;;;;;;26.92;nan;99246.84;5008846;28;19992;-84
2022/06/05 12:31:22;;;;;;;;;;;;;;;26.95;nan;99253.69;4992081;28;20075;-86
2022/06/05 12:33:55;;;;;;;;;;;;;;;26.96;nan;99258.06;5016197;28;19983;-86
2022/06/05 12:36:40;;;;;;;;;;;;;;;26.98;nan;99258.63;5005214;28;19972;-86
2022/06/05 12:39:14;;;;;;;;;;;;;;;27.01;nan;99250.16;5006768;28;19972;-86
2022/06/05 12:42:00;;;;;;;;;;;;;;;27.13;nan;99249.25;4978487;28;20015;-87
2022/06/05 12:44:33;;;;;;;;;;;;;;;27.22;nan;99247.19;5004576;28;19975;-88
2022/06/05 12:47:04;;;;;;;;;;;;;;;27.21;nan;99250.09;4997259;28;19993;-86
2022/06/05 12:49:39;;;;;;;;;;;;;;;27.18;nan;99251.34;4981179;28;19972;-86
2022/06/05 12:52:11;;;;;;;;;;;;;;;27.19;nan;99246.78;5004459;28;20429;-86
2022/06/05 12:54:41;;;;;;;;;;;;;;;27.24;nan;99233.47;5005591;28;19972;-85
2022/06/05 12:57:14;;;;;;;;;;;;;;;27.33;nan;99234.91;5008996;28;20018;-90
2022/06/05 12:59:53;;;;;;;;;;;;;;;27.36;nan;99220.97;5007404;28;20004;-86
2022/06/05 13:02:41;;;;;;;;;;;;;;;27.37;nan;99219.94;5023948;28;19963;-85
2022/06/05 13:05:21;;;;;;;;;;;;;;;27.39;nan;99217.84;5020846;28;19983;-89
2022/06/05 13:07:54;;;;;;;;;;;;;;;27.35;nan;99209.38;5015673;28;20023;-85
2022/06/05 13:10:19;;;;;;;;;;;;;;;27.39;nan;99209.75;5018507;28;20025;-87
2022/06/05 13:12:48;;;;;;;;;;;;;;;27.50;nan;99217.16;5011261;28;19979;-86
2022/06/05 13:15:29;;;;;;;;;;;;;;;27.65;nan;99219.53;4991899;28;20003;-87
2022/06/05 13:17:58;;;;;;;;;;;;;;;27.74;nan;99225.50;5015889;28;19963;-85
2022/06/05 13:20:35;;;;;;;;;;;;;;;27.77;nan;99234.00;5011457;28;20910;-86
2022/06/05 13:23:03;;;;;;;;;;;;;;;27.79;nan;99215.72;5013372;28;19979;-86
2022/06/05 13:25:41;;;;;;;;;;;;;;;27.76;nan;99226.09;5016434;28;19996;-86
2022/06/05 13:28:06;;;;;;;;;;;;;;;27.84;nan;99228.59;5021817;28;20000;-87
2022/06/05 13:30:40;;;;;;;;;;;;;;;27.78;nan;99227.53;5002522;28;20042;-85
2022/06/05 13:33:13;;;;;;;;;;;;;;;27.77;nan;99230.47;5007306;28;19967;-87
2022/06/05 13:35:45;;;;;;;;;;;;;;;27.73;nan;99218.44;5010164;28;20203;-86
2022/06/05 13:38:29;;;;;;;;;;;;;;;27.72;nan;99227.59;5007795;28;20074;-89